sensor_id;sensor_type;location;lat;lon;timestamp;P1;durP1;ratioP1;P2;durP2;ratioP2
4810;SDS011;2419;51.276;6.472;2023-04-24T00:00:56;1.43;;;1.30;;
4810;SDS011;2419;51.276;6.472;2023-04-24T00:03:25;1.20;;;1.10;;
4810;SDS011;2419;51.276;6.472;2023-04-24T00:05:54;6.10;;;1.47;;
4810;SDS011;2419;51.276;6.472;2023-04-24T00:08:22;1.40;;;1.30;;
4810;SDS011;2419;51.276;6.472;2023-04-24T00:10:51;1.20;;;1.10;;
4810;SDS011;2419;51.276;6.472;2023-04-24T00:13:19;1.57;;;1.47;;
4810;SDS011;2419;51.276;6.472;2023-04-24T00:15:48;1.57;;;1.37;;
4810;SDS011;2419;51.276;6.472;2023-04-24T00:18:16;1.97;;;1.30;;
4810;SDS011;2419;51.276;6.472;2023-04-24T00:20:44;3.93;;;1.60;;
4810;SDS011;2419;51.276;6.472;2023-04-24T00:23:13;1.77;;;1.67;;
4810;SDS011;2419;51.276;6.472;2023-04-24T00:25:40;3.77;;;1.77;;
4810;SDS011;2419;51.276;6.472;2023-04-24T00:28:08;4.23;;;2.63;;
4810;SDS011;2419;51.276;6.472;2023-04-24T00:30:36;3.40;;;2.30;;
4810;SDS011;2419;51.276;6.472;2023-04-24T00:33:06;2.70;;;2.30;;
4810;SDS011;2419;51.276;6.472;2023-04-24T00:35:34;2.87;;;1.77;;
4810;SDS011;2419;51.276;6.472;2023-04-24T00:38:02;3.30;;;2.97;;
4810;SDS011;2419;51.276;6.472;2023-04-24T00:40:30;3.23;;;2.70;;
4810;SDS011;2419;51.276;6.472;2023-04-24T00:42:58;2.83;;;2.20;;
4810;SDS011;2419;51.276;6.472;2023-04-24T00:45:26;3.00;;;2.10;;
4810;SDS011;2419;51.276;6.472;2023-04-24T00:47:55;2.17;;;1.93;;
4810;SDS011;2419;51.276;6.472;2023-04-24T00:50:25;2.60;;;2.40;;
4810;SDS011;2419;51.276;6.472;2023-04-24T00:52:53;2.60;;;2.40;;
4810;SDS011;2419;51.276;6.472;2023-04-24T00:55:21;5.60;;;3.57;;
4810;SDS011;2419;51.276;6.472;2023-04-24T00:57:50;4.50;;;2.63;;
4810;SDS011;2419;51.276;6.472;2023-04-24T01:00:19;3.53;;;3.23;;
4810;SDS011;2419;51.276;6.472;2023-04-24T01:02:47;5.73;;;3.67;;
4810;SDS011;2419;51.276;6.472;2023-04-24T01:05:18;3.60;;;2.80;;
4810;SDS011;2419;51.276;6.472;2023-04-24T01:07:48;3.73;;;3.23;;
4810;SDS011;2419;51.276;6.472;2023-04-24T01:10:16;3.00;;;2.70;;
4810;SDS011;2419;51.276;6.472;2023-04-24T01:12:46;3.67;;;3.10;;
4810;SDS011;2419;51.276;6.472;2023-04-24T01:15:14;4.03;;;2.30;;
4810;SDS011;2419;51.276;6.472;2023-04-24T01:17:42;3.30;;;2.47;;
4810;SDS011;2419;51.276;6.472;2023-04-24T01:20:13;3.47;;;2.93;;
4810;SDS011;2419;51.276;6.472;2023-04-24T01:22:43;3.47;;;2.50;;
4810;SDS011;2419;51.276;6.472;2023-04-24T01:25:11;4.13;;;2.40;;
4810;SDS011;2419;51.276;6.472;2023-04-24T01:27:39;3.63;;;2.70;;
4810;SDS011;2419;51.276;6.472;2023-04-24T01:30:07;6.40;;;2.97;;
4810;SDS011;2419;51.276;6.472;2023-04-24T01:32:36;3.37;;;2.50;;
4810;SDS011;2419;51.276;6.472;2023-04-24T01:35:05;8.00;;;1.77;;
4810;SDS011;2419;51.276;6.472;2023-04-24T01:37:34;4.83;;;2.80;;
4810;SDS011;2419;51.276;6.472;2023-04-24T01:40:05;4.13;;;3.33;;
4810;SDS011;2419;51.276;6.472;2023-04-24T01:42:34;4.70;;;2.83;;
4810;SDS011;2419;51.276;6.472;2023-04-24T01:45:03;3.50;;;2.80;;
4810;SDS011;2419;51.276;6.472;2023-04-24T01:47:33;5.80;;;4.20;;
4810;SDS011;2419;51.276;6.472;2023-04-24T01:50:01;7.33;;;4.03;;
4810;SDS011;2419;51.276;6.472;2023-04-24T01:52:31;5.57;;;3.50;;
4810;SDS011;2419;51.276;6.472;2023-04-24T01:54:59;6.40;;;4.43;;
4810;SDS011;2419;51.276;6.472;2023-04-24T01:57:29;8.53;;;4.90;;
4810;SDS011;2419;51.276;6.472;2023-04-24T01:59:57;5.70;;;3.70;;
4810;SDS011;2419;51.276;6.472;2023-04-24T02:02:27;8.13;;;4.77;;
4810;SDS011;2419;51.276;6.472;2023-04-24T02:04:56;8.20;;;4.63;;
4810;SDS011;2419;51.276;6.472;2023-04-24T02:07:24;6.10;;;4.30;;
4810;SDS011;2419;51.276;6.472;2023-04-24T02:09:52;10.67;;;5.23;;
4810;SDS011;2419;51.276;6.472;2023-04-24T02:12:21;11.73;;;5.30;;
4810;SDS011;2419;51.276;6.472;2023-04-24T02:14:51;9.83;;;4.27;;
4810;SDS011;2419;51.276;6.472;2023-04-24T02:17:19;5.90;;;4.23;;
4810;SDS011;2419;51.276;6.472;2023-04-24T02:19:48;9.20;;;5.30;;
4810;SDS011;2419;51.276;6.472;2023-04-24T02:22:16;7.87;;;5.67;;
4810;SDS011;2419;51.276;6.472;2023-04-24T02:24:44;7.23;;;4.87;;
4810;SDS011;2419;51.276;6.472;2023-04-24T02:27:14;9.53;;;5.20;;
4810;SDS011;2419;51.276;6.472;2023-04-24T02:29:42;9.20;;;5.53;;
4810;SDS011;2419;51.276;6.472;2023-04-24T02:32:12;10.87;;;5.70;;
4810;SDS011;2419;51.276;6.472;2023-04-24T02:34:42;10.40;;;5.30;;
4810;SDS011;2419;51.276;6.472;2023-04-24T02:37:11;11.27;;;6.17;;
4810;SDS011;2419;51.276;6.472;2023-04-24T02:39:39;9.83;;;5.50;;
4810;SDS011;2419;51.276;6.472;2023-04-24T02:42:07;8.53;;;4.50;;
4810;SDS011;2419;51.276;6.472;2023-04-24T02:44:36;6.60;;;5.30;;
4810;SDS011;2419;51.276;6.472;2023-04-24T02:47:04;11.03;;;5.70;;
4810;SDS011;2419;51.276;6.472;2023-04-24T02:49:33;9.53;;;5.20;;
4810;SDS011;2419;51.276;6.472;2023-04-24T02:52:01;15.93;;;6.80;;
4810;SDS011;2419;51.276;6.472;2023-04-24T02:54:29;7.47;;;5.43;;
4810;SDS011;2419;51.276;6.472;2023-04-24T02:56:57;7.67;;;5.23;;
4810;SDS011;2419;51.276;6.472;2023-04-24T02:59:25;8.40;;;5.57;;
4810;SDS011;2419;51.276;6.472;2023-04-24T03:01:55;12.60;;;6.83;;
4810;SDS011;2419;51.276;6.472;2023-04-24T03:04:23;9.87;;;5.47;;
4810;SDS011;2419;51.276;6.472;2023-04-24T03:06:52;9.40;;;5.20;;
4810;SDS011;2419;51.276;6.472;2023-04-24T03:09:21;15.33;;;5.77;;
4810;SDS011;2419;51.276;6.472;2023-04-24T03:11:49;10.60;;;6.30;;
4810;SDS011;2419;51.276;6.472;2023-04-24T03:14:17;8.80;;;5.80;;
4810;SDS011;2419;51.276;6.472;2023-04-24T03:16:45;6.80;;;4.60;;
4810;SDS011;2419;51.276;6.472;2023-04-24T03:19:13;9.20;;;5.47;;
4810;SDS011;2419;51.276;6.472;2023-04-24T03:22:02;9.43;;;5.03;;
4810;SDS011;2419;51.276;6.472;2023-04-24T03:24:31;11.93;;;5.43;;
4810;SDS011;2419;51.276;6.472;2023-04-24T03:26:59;8.20;;;5.67;;
4810;SDS011;2419;51.276;6.472;2023-04-24T03:29:47;7.93;;;4.40;;
4810;SDS011;2419;51.276;6.472;2023-04-24T03:32:17;9.50;;;5.70;;
4810;SDS011;2419;51.276;6.472;2023-04-24T03:34:46;16.33;;;6.10;;
4810;SDS011;2419;51.276;6.472;2023-04-24T03:37:16;10.00;;;5.93;;
4810;SDS011;2419;51.276;6.472;2023-04-24T03:39:52;7.17;;;6.20;;
4810;SDS011;2419;51.276;6.472;2023-04-24T03:42:23;12.57;;;6.50;;
4810;SDS011;2419;51.276;6.472;2023-04-24T03:44:54;7.90;;;5.40;;
4810;SDS011;2419;51.276;6.472;2023-04-24T03:47:27;9.53;;;5.77;;
4810;SDS011;2419;51.276;6.472;2023-04-24T03:49:58;9.70;;;5.57;;
4810;SDS011;2419;51.276;6.472;2023-04-24T03:52:29;13.50;;;6.47;;
4810;SDS011;2419;51.276;6.472;2023-04-24T03:54:57;9.00;;;4.03;;
4810;SDS011;2419;51.276;6.472;2023-04-24T03:57:26;10.27;;;5.60;;
4810;SDS011;2419;51.276;6.472;2023-04-24T04:00:09;14.23;;;5.80;;
4810;SDS011;2419;51.276;6.472;2023-04-24T04:02:41;5.37;;;4.30;;
4810;SDS011;2419;51.276;6.472;2023-04-24T04:05:09;8.33;;;3.70;;
4810;SDS011;2419;51.276;6.472;2023-04-24T04:07:39;7.27;;;4.37;;
4810;SDS011;2419;51.276;6.472;2023-04-24T04:10:07;4.93;;;3.83;;
4810;SDS011;2419;51.276;6.472;2023-04-24T04:12:36;5.97;;;3.97;;
4810;SDS011;2419;51.276;6.472;2023-04-24T04:15:05;8.93;;;4.80;;
4810;SDS011;2419;51.276;6.472;2023-04-24T04:17:34;11.17;;;4.00;;
4810;SDS011;2419;51.276;6.472;2023-04-24T04:20:06;6.87;;;4.80;;
4810;SDS011;2419;51.276;6.472;2023-04-24T04:22:37;6.80;;;5.30;;
4810;SDS011;2419;51.276;6.472;2023-04-24T04:25:13;8.63;;;4.37;;
4810;SDS011;2419;51.276;6.472;2023-04-24T04:27:42;8.90;;;5.20;;
4810;SDS011;2419;51.276;6.472;2023-04-24T04:30:11;6.57;;;4.03;;
4810;SDS011;2419;51.276;6.472;2023-04-24T04:32:47;4.60;;;4.10;;
4810;SDS011;2419;51.276;6.472;2023-04-24T04:35:15;4.73;;;3.97;;
4810;SDS011;2419;51.276;6.472;2023-04-24T04:37:45;6.13;;;3.70;;
4810;SDS011;2419;51.276;6.472;2023-04-24T04:40:19;9.87;;;5.90;;
4810;SDS011;2419;51.276;6.472;2023-04-24T04:42:53;12.57;;;4.43;;
4810;SDS011;2419;51.276;6.472;2023-04-24T04:45:23;6.10;;;4.23;;
4810;SDS011;2419;51.276;6.472;2023-04-24T04:48:11;9.50;;;5.13;;
4810;SDS011;2419;51.276;6.472;2023-04-24T04:50:40;5.23;;;4.07;;
4810;SDS011;2419;51.276;6.472;2023-04-24T04:53:10;5.80;;;3.80;;
4810;SDS011;2419;51.276;6.472;2023-04-24T04:55:38;8.00;;;5.43;;
4810;SDS011;2419;51.276;6.472;2023-04-24T04:58:12;7.53;;;4.40;;
4810;SDS011;2419;51.276;6.472;2023-04-24T05:00:40;6.70;;;4.33;;
4810;SDS011;2419;51.276;6.472;2023-04-24T05:03:17;8.60;;;5.70;;
4810;SDS011;2419;51.276;6.472;2023-04-24T05:05:54;7.03;;;5.07;;
4810;SDS011;2419;51.276;6.472;2023-04-24T05:08:24;10.77;;;4.77;;
4810;SDS011;2419;51.276;6.472;2023-04-24T05:10:54;6.53;;;3.80;;
4810;SDS011;2419;51.276;6.472;2023-04-24T05:13:24;6.13;;;4.40;;
4810;SDS011;2419;51.276;6.472;2023-04-24T05:16:09;6.33;;;4.30;;
4810;SDS011;2419;51.276;6.472;2023-04-24T05:18:38;6.20;;;3.60;;
4810;SDS011;2419;51.276;6.472;2023-04-24T05:21:08;5.97;;;4.00;;
4810;SDS011;2419;51.276;6.472;2023-04-24T05:23:40;8.00;;;4.80;;
4810;SDS011;2419;51.276;6.472;2023-04-24T05:26:10;7.47;;;5.23;;
4810;SDS011;2419;51.276;6.472;2023-04-24T05:28:40;9.77;;;5.97;;
4810;SDS011;2419;51.276;6.472;2023-04-24T05:31:10;7.83;;;4.70;;
4810;SDS011;2419;51.276;6.472;2023-04-24T05:33:39;7.77;;;4.57;;
4810;SDS011;2419;51.276;6.472;2023-04-24T05:36:07;6.30;;;4.17;;
4810;SDS011;2419;51.276;6.472;2023-04-24T05:38:36;6.27;;;4.30;;
4810;SDS011;2419;51.276;6.472;2023-04-24T05:41:05;12.13;;;4.67;;
4810;SDS011;2419;51.276;6.472;2023-04-24T05:43:33;6.27;;;4.60;;
4810;SDS011;2419;51.276;6.472;2023-04-24T05:46:01;9.70;;;4.70;;
4810;SDS011;2419;51.276;6.472;2023-04-24T05:48:29;6.00;;;4.20;;
4810;SDS011;2419;51.276;6.472;2023-04-24T05:51:00;4.47;;;3.40;;
4810;SDS011;2419;51.276;6.472;2023-04-24T05:53:28;6.83;;;4.00;;
4810;SDS011;2419;51.276;6.472;2023-04-24T05:55:56;4.97;;;3.20;;
4810;SDS011;2419;51.276;6.472;2023-04-24T05:58:26;8.13;;;3.97;;
4810;SDS011;2419;51.276;6.472;2023-04-24T06:00:55;4.30;;;3.07;;
4810;SDS011;2419;51.276;6.472;2023-04-24T06:03:24;6.80;;;3.67;;
4810;SDS011;2419;51.276;6.472;2023-04-24T06:05:53;4.80;;;3.97;;
4810;SDS011;2419;51.276;6.472;2023-04-24T06:08:22;4.80;;;3.50;;
4810;SDS011;2419;51.276;6.472;2023-04-24T06:10:51;4.00;;;2.70;;
4810;SDS011;2419;51.276;6.472;2023-04-24T06:13:20;7.50;;;4.40;;
4810;SDS011;2419;51.276;6.472;2023-04-24T06:16:12;4.10;;;3.00;;
4810;SDS011;2419;51.276;6.472;2023-04-24T06:18:45;4.67;;;3.47;;
4810;SDS011;2419;51.276;6.472;2023-04-24T06:21:16;4.10;;;3.17;;
4810;SDS011;2419;51.276;6.472;2023-04-24T06:23:44;4.50;;;3.73;;
4810;SDS011;2419;51.276;6.472;2023-04-24T06:26:13;3.70;;;2.43;;
4810;SDS011;2419;51.276;6.472;2023-04-24T06:28:42;3.73;;;3.20;;
4810;SDS011;2419;51.276;6.472;2023-04-24T06:31:10;4.40;;;2.83;;
4810;SDS011;2419;51.276;6.472;2023-04-24T06:33:39;5.40;;;3.53;;
4810;SDS011;2419;51.276;6.472;2023-04-24T06:36:08;7.87;;;3.70;;
4810;SDS011;2419;51.276;6.472;2023-04-24T06:38:37;4.23;;;3.80;;
4810;SDS011;2419;51.276;6.472;2023-04-24T06:41:06;7.63;;;3.10;;
4810;SDS011;2419;51.276;6.472;2023-04-24T06:43:34;6.10;;;3.80;;
4810;SDS011;2419;51.276;6.472;2023-04-24T06:46:02;3.40;;;2.60;;
4810;SDS011;2419;51.276;6.472;2023-04-24T06:48:30;1.90;;;1.63;;
4810;SDS011;2419;51.276;6.472;2023-04-24T06:51:00;2.03;;;1.80;;
4810;SDS011;2419;51.276;6.472;2023-04-24T06:53:28;1.97;;;1.63;;
4810;SDS011;2419;51.276;6.472;2023-04-24T06:55:56;5.40;;;2.27;;
4810;SDS011;2419;51.276;6.472;2023-04-24T06:58:24;4.00;;;1.73;;
4810;SDS011;2419;51.276;6.472;2023-04-24T07:00:52;2.77;;;1.80;;
4810;SDS011;2419;51.276;6.472;2023-04-24T07:03:20;2.63;;;1.50;;
4810;SDS011;2419;51.276;6.472;2023-04-24T07:05:48;1.10;;;1.00;;
4810;SDS011;2419;51.276;6.472;2023-04-24T07:08:18;0.90;;;0.90;;
4810;SDS011;2419;51.276;6.472;2023-04-24T07:10:48;1.37;;;1.27;;
4810;SDS011;2419;51.276;6.472;2023-04-24T07:13:17;2.03;;;1.03;;
4810;SDS011;2419;51.276;6.472;2023-04-24T07:15:45;0.90;;;0.80;;
4810;SDS011;2419;51.276;6.472;2023-04-24T07:18:15;1.00;;;0.80;;
4810;SDS011;2419;51.276;6.472;2023-04-24T07:20:43;0.83;;;0.83;;
4810;SDS011;2419;51.276;6.472;2023-04-24T07:23:11;0.80;;;0.70;;
4810;SDS011;2419;51.276;6.472;2023-04-24T07:25:40;1.43;;;0.90;;
4810;SDS011;2419;51.276;6.472;2023-04-24T07:28:08;0.90;;;0.90;;
4810;SDS011;2419;51.276;6.472;2023-04-24T07:30:37;0.70;;;0.70;;
4810;SDS011;2419;51.276;6.472;2023-04-24T07:33:05;0.73;;;0.73;;
4810;SDS011;2419;51.276;6.472;2023-04-24T07:35:33;0.80;;;0.80;;
4810;SDS011;2419;51.276;6.472;2023-04-24T07:38:01;0.77;;;0.77;;
4810;SDS011;2419;51.276;6.472;2023-04-24T07:40:29;1.30;;;1.13;;
4810;SDS011;2419;51.276;6.472;2023-04-24T07:42:59;3.53;;;1.07;;
4810;SDS011;2419;51.276;6.472;2023-04-24T07:45:27;1.60;;;1.43;;
4810;SDS011;2419;51.276;6.472;2023-04-24T07:47:55;1.40;;;1.10;;
4810;SDS011;2419;51.276;6.472;2023-04-24T07:50:23;2.70;;;1.40;;
4810;SDS011;2419;51.276;6.472;2023-04-24T07:52:51;3.10;;;1.90;;
4810;SDS011;2419;51.276;6.472;2023-04-24T07:55:19;2.87;;;1.60;;
4810;SDS011;2419;51.276;6.472;2023-04-24T07:57:51;1.77;;;1.50;;
4810;SDS011;2419;51.276;6.472;2023-04-24T08:00:21;1.70;;;1.17;;
4810;SDS011;2419;51.276;6.472;2023-04-24T08:02:49;1.13;;;1.03;;
4810;SDS011;2419;51.276;6.472;2023-04-24T08:05:17;1.13;;;1.07;;
4810;SDS011;2419;51.276;6.472;2023-04-24T08:07:45;1.73;;;1.17;;
4810;SDS011;2419;51.276;6.472;2023-04-24T08:10:15;1.73;;;1.20;;
4810;SDS011;2419;51.276;6.472;2023-04-24T08:12:43;1.33;;;1.23;;
4810;SDS011;2419;51.276;6.472;2023-04-24T08:15:11;2.70;;;1.50;;
4810;SDS011;2419;51.276;6.472;2023-04-24T08:17:40;2.10;;;1.27;;
4810;SDS011;2419;51.276;6.472;2023-04-24T08:20:11;1.50;;;1.20;;
4810;SDS011;2419;51.276;6.472;2023-04-24T08:22:40;2.07;;;1.80;;
4810;SDS011;2419;51.276;6.472;2023-04-24T08:25:09;2.20;;;1.67;;
4810;SDS011;2419;51.276;6.472;2023-04-24T08:27:37;2.50;;;2.13;;
4810;SDS011;2419;51.276;6.472;2023-04-24T08:30:06;4.00;;;2.80;;
4810;SDS011;2419;51.276;6.472;2023-04-24T08:32:35;5.23;;;3.50;;
4810;SDS011;2419;51.276;6.472;2023-04-24T08:35:05;5.60;;;3.73;;
4810;SDS011;2419;51.276;6.472;2023-04-24T08:37:35;6.83;;;3.80;;
4810;SDS011;2419;51.276;6.472;2023-04-24T08:40:05;4.80;;;3.83;;
4810;SDS011;2419;51.276;6.472;2023-04-24T08:42:39;3.70;;;2.80;;
4810;SDS011;2419;51.276;6.472;2023-04-24T08:45:09;3.43;;;2.93;;
4810;SDS011;2419;51.276;6.472;2023-04-24T08:47:37;3.13;;;2.67;;
4810;SDS011;2419;51.276;6.472;2023-04-24T08:50:08;4.03;;;2.70;;
4810;SDS011;2419;51.276;6.472;2023-04-24T08:52:36;7.50;;;3.37;;
4810;SDS011;2419;51.276;6.472;2023-04-24T08:55:05;3.27;;;2.80;;
4810;SDS011;2419;51.276;6.472;2023-04-24T08:57:33;5.03;;;3.50;;
4810;SDS011;2419;51.276;6.472;2023-04-24T09:00:04;8.80;;;3.83;;
4810;SDS011;2419;51.276;6.472;2023-04-24T09:02:38;5.17;;;3.87;;
4810;SDS011;2419;51.276;6.472;2023-04-24T09:05:11;7.40;;;3.87;;
4810;SDS011;2419;51.276;6.472;2023-04-24T09:07:41;7.80;;;3.70;;
4810;SDS011;2419;51.276;6.472;2023-04-24T09:10:11;6.43;;;4.30;;
4810;SDS011;2419;51.276;6.472;2023-04-24T09:12:40;4.10;;;3.27;;
4810;SDS011;2419;51.276;6.472;2023-04-24T09:15:09;5.37;;;4.00;;
4810;SDS011;2419;51.276;6.472;2023-04-24T09:17:38;5.93;;;3.50;;
4810;SDS011;2419;51.276;6.472;2023-04-24T09:20:07;6.90;;;3.00;;
4810;SDS011;2419;51.276;6.472;2023-04-24T09:22:37;5.60;;;3.60;;
4810;SDS011;2419;51.276;6.472;2023-04-24T09:25:05;4.40;;;3.30;;
4810;SDS011;2419;51.276;6.472;2023-04-24T09:27:35;11.00;;;3.70;;
4810;SDS011;2419;51.276;6.472;2023-04-24T09:30:03;5.00;;;3.53;;
4810;SDS011;2419;51.276;6.472;2023-04-24T09:32:33;5.50;;;3.97;;
4810;SDS011;2419;51.276;6.472;2023-04-24T09:35:05;10.03;;;3.60;;
4810;SDS011;2419;51.276;6.472;2023-04-24T09:37:37;4.67;;;3.90;;
4810;SDS011;2419;51.276;6.472;2023-04-24T09:40:08;7.57;;;4.33;;
4810;SDS011;2419;51.276;6.472;2023-04-24T09:42:43;7.37;;;3.80;;
4810;SDS011;2419;51.276;6.472;2023-04-24T09:45:13;8.03;;;4.20;;
4810;SDS011;2419;51.276;6.472;2023-04-24T09:47:41;5.80;;;3.60;;
4810;SDS011;2419;51.276;6.472;2023-04-24T09:50:13;6.20;;;3.83;;
4810;SDS011;2419;51.276;6.472;2023-04-24T09:52:56;8.37;;;4.37;;
4810;SDS011;2419;51.276;6.472;2023-04-24T09:55:26;8.53;;;4.10;;
4810;SDS011;2419;51.276;6.472;2023-04-24T09:57:55;8.33;;;4.33;;
4810;SDS011;2419;51.276;6.472;2023-04-24T10:00:26;10.97;;;3.50;;
4810;SDS011;2419;51.276;6.472;2023-04-24T10:02:56;6.53;;;4.53;;
4810;SDS011;2419;51.276;6.472;2023-04-24T10:05:28;11.00;;;4.27;;
4810;SDS011;2419;51.276;6.472;2023-04-24T10:07:59;8.30;;;4.70;;
4810;SDS011;2419;51.276;6.472;2023-04-24T10:10:29;9.20;;;4.57;;
4810;SDS011;2419;51.276;6.472;2023-04-24T10:12:57;12.50;;;5.10;;
4810;SDS011;2419;51.276;6.472;2023-04-24T10:15:26;7.50;;;3.97;;
4810;SDS011;2419;51.276;6.472;2023-04-24T10:17:54;7.83;;;4.10;;
4810;SDS011;2419;51.276;6.472;2023-04-24T10:20:27;8.77;;;4.80;;
4810;SDS011;2419;51.276;6.472;2023-04-24T10:22:57;7.10;;;3.90;;
4810;SDS011;2419;51.276;6.472;2023-04-24T10:25:27;6.13;;;4.00;;
4810;SDS011;2419;51.276;6.472;2023-04-24T10:27:56;5.67;;;3.63;;
4810;SDS011;2419;51.276;6.472;2023-04-24T10:30:29;5.77;;;4.03;;
4810;SDS011;2419;51.276;6.472;2023-04-24T10:33:01;9.20;;;4.40;;
4810;SDS011;2419;51.276;6.472;2023-04-24T10:35:31;11.43;;;3.80;;
4810;SDS011;2419;51.276;6.472;2023-04-24T10:38:01;7.97;;;2.80;;
4810;SDS011;2419;51.276;6.472;2023-04-24T10:40:38;4.63;;;3.10;;
4810;SDS011;2419;51.276;6.472;2023-04-24T10:43:07;10.83;;;3.47;;
4810;SDS011;2419;51.276;6.472;2023-04-24T10:45:37;6.13;;;3.40;;
4810;SDS011;2419;51.276;6.472;2023-04-24T10:48:06;6.80;;;3.10;;
4810;SDS011;2419;51.276;6.472;2023-04-24T10:50:44;4.97;;;3.43;;
4810;SDS011;2419;51.276;6.472;2023-04-24T10:53:14;6.53;;;2.70;;
4810;SDS011;2419;51.276;6.472;2023-04-24T10:55:46;9.13;;;3.60;;
4810;SDS011;2419;51.276;6.472;2023-04-24T10:58:15;5.23;;;3.30;;
4810;SDS011;2419;51.276;6.472;2023-04-24T11:00:48;3.67;;;2.80;;
4810;SDS011;2419;51.276;6.472;2023-04-24T11:03:25;3.50;;;2.30;;
4810;SDS011;2419;51.276;6.472;2023-04-24T11:05:56;3.50;;;2.27;;
4810;SDS011;2419;51.276;6.472;2023-04-24T11:08:27;4.13;;;2.50;;
4810;SDS011;2419;51.276;6.472;2023-04-24T11:10:59;10.20;;;3.00;;
4810;SDS011;2419;51.276;6.472;2023-04-24T11:16:35;5.47;;;2.27;;
4810;SDS011;2419;51.276;6.472;2023-04-24T11:19:07;4.30;;;2.33;;
4810;SDS011;2419;51.276;6.472;2023-04-24T11:21:39;11.80;;;2.80;;
4810;SDS011;2419;51.276;6.472;2023-04-24T11:24:24;5.33;;;2.17;;
4810;SDS011;2419;51.276;6.472;2023-04-24T11:26:56;4.93;;;2.43;;
4810;SDS011;2419;51.276;6.472;2023-04-24T11:29:38;3.40;;;1.90;;
4810;SDS011;2419;51.276;6.472;2023-04-24T11:32:15;6.50;;;2.87;;
4810;SDS011;2419;51.276;6.472;2023-04-24T11:34:51;7.90;;;2.23;;
4810;SDS011;2419;51.276;6.472;2023-04-24T11:37:21;2.80;;;1.93;;
4810;SDS011;2419;51.276;6.472;2023-04-24T11:39:50;5.63;;;1.97;;
4810;SDS011;2419;51.276;6.472;2023-04-24T11:42:23;4.00;;;2.13;;
4810;SDS011;2419;51.276;6.472;2023-04-24T11:44:53;3.20;;;1.70;;
4810;SDS011;2419;51.276;6.472;2023-04-24T11:47:29;3.33;;;1.73;;
4810;SDS011;2419;51.276;6.472;2023-04-24T11:50:00;11.30;;;3.00;;
4810;SDS011;2419;51.276;6.472;2023-04-24T11:52:28;7.60;;;3.10;;
4810;SDS011;2419;51.276;6.472;2023-04-24T11:54:57;4.00;;;2.13;;
4810;SDS011;2419;51.276;6.472;2023-04-24T11:57:27;4.10;;;1.70;;
4810;SDS011;2419;51.276;6.472;2023-04-24T11:59:59;7.30;;;1.90;;
4810;SDS011;2419;51.276;6.472;2023-04-24T12:02:37;4.73;;;2.20;;
4810;SDS011;2419;51.276;6.472;2023-04-24T12:05:06;23.40;;;7.40;;
4810;SDS011;2419;51.276;6.472;2023-04-24T12:07:46;6.30;;;1.73;;
4810;SDS011;2419;51.276;6.472;2023-04-24T12:10:19;2.70;;;1.57;;
4810;SDS011;2419;51.276;6.472;2023-04-24T12:12:49;4.73;;;1.73;;
4810;SDS011;2419;51.276;6.472;2023-04-24T12:15:18;2.23;;;1.43;;
4810;SDS011;2419;51.276;6.472;2023-04-24T12:17:47;3.37;;;1.20;;
4810;SDS011;2419;51.276;6.472;2023-04-24T12:20:23;1.57;;;1.27;;
4810;SDS011;2419;51.276;6.472;2023-04-24T12:22:53;2.27;;;1.27;;
4810;SDS011;2419;51.276;6.472;2023-04-24T12:25:23;10.20;;;1.97;;
4810;SDS011;2419;51.276;6.472;2023-04-24T12:27:53;1.20;;;1.00;;
4810;SDS011;2419;51.276;6.472;2023-04-24T12:30:26;1.47;;;1.20;;
4810;SDS011;2419;51.276;6.472;2023-04-24T12:32:56;2.00;;;1.20;;
4810;SDS011;2419;51.276;6.472;2023-04-24T12:35:26;4.40;;;1.30;;
4810;SDS011;2419;51.276;6.472;2023-04-24T12:37:56;2.40;;;1.30;;
4810;SDS011;2419;51.276;6.472;2023-04-24T12:40:33;2.50;;;1.00;;
4810;SDS011;2419;51.276;6.472;2023-04-24T12:43:02;1.30;;;0.97;;
4810;SDS011;2419;51.276;6.472;2023-04-24T12:45:40;7.63;;;1.60;;
4810;SDS011;2419;51.276;6.472;2023-04-24T12:48:08;2.23;;;1.27;;
4810;SDS011;2419;51.276;6.472;2023-04-24T12:50:37;1.27;;;0.97;;
4810;SDS011;2419;51.276;6.472;2023-04-24T12:53:05;1.40;;;1.30;;
4810;SDS011;2419;51.276;6.472;2023-04-24T12:55:34;3.17;;;1.53;;
4810;SDS011;2419;51.276;6.472;2023-04-24T12:58:03;3.23;;;0.90;;
4810;SDS011;2419;51.276;6.472;2023-04-24T13:00:32;1.53;;;0.80;;
4810;SDS011;2419;51.276;6.472;2023-04-24T13:03:00;1.10;;;0.87;;
4810;SDS011;2419;51.276;6.472;2023-04-24T13:05:29;1.10;;;1.00;;
4810;SDS011;2419;51.276;6.472;2023-04-24T13:07:57;2.83;;;1.00;;
4810;SDS011;2419;51.276;6.472;2023-04-24T13:10:25;1.33;;;1.10;;
4810;SDS011;2419;51.276;6.472;2023-04-24T13:12:53;1.00;;;0.90;;
4810;SDS011;2419;51.276;6.472;2023-04-24T13:15:23;0.80;;;0.80;;
4810;SDS011;2419;51.276;6.472;2023-04-24T13:17:51;4.10;;;1.40;;
4810;SDS011;2419;51.276;6.472;2023-04-24T13:20:19;3.90;;;1.20;;
4810;SDS011;2419;51.276;6.472;2023-04-24T13:22:47;2.20;;;1.10;;
4810;SDS011;2419;51.276;6.472;2023-04-24T13:25:15;0.90;;;0.90;;
4810;SDS011;2419;51.276;6.472;2023-04-24T13:27:44;2.30;;;1.40;;
4810;SDS011;2419;51.276;6.472;2023-04-24T13:30:12;6.00;;;1.60;;
4810;SDS011;2419;51.276;6.472;2023-04-24T13:32:42;1.87;;;1.00;;
4810;SDS011;2419;51.276;6.472;2023-04-24T13:35:10;1.20;;;1.10;;
4810;SDS011;2419;51.276;6.472;2023-04-24T13:37:38;1.20;;;1.07;;
4810;SDS011;2419;51.276;6.472;2023-04-24T13:40:06;3.70;;;1.10;;
4810;SDS011;2419;51.276;6.472;2023-04-24T13:42:35;2.60;;;1.03;;
4810;SDS011;2419;51.276;6.472;2023-04-24T13:45:03;1.87;;;1.30;;
4810;SDS011;2419;51.276;6.472;2023-04-24T13:47:51;2.70;;;1.30;;
4810;SDS011;2419;51.276;6.472;2023-04-24T13:50:20;3.27;;;1.27;;
4810;SDS011;2419;51.276;6.472;2023-04-24T13:52:48;3.80;;;1.23;;
4810;SDS011;2419;51.276;6.472;2023-04-24T13:55:16;2.33;;;1.40;;
4810;SDS011;2419;51.276;6.472;2023-04-24T13:57:44;1.90;;;1.20;;
4810;SDS011;2419;51.276;6.472;2023-04-24T14:00:13;2.30;;;1.00;;
4810;SDS011;2419;51.276;6.472;2023-04-24T14:02:41;1.53;;;1.00;;
4810;SDS011;2419;51.276;6.472;2023-04-24T14:05:11;1.20;;;0.90;;
4810;SDS011;2419;51.276;6.472;2023-04-24T14:07:40;2.33;;;1.20;;
4810;SDS011;2419;51.276;6.472;2023-04-24T14:10:08;1.83;;;0.90;;
4810;SDS011;2419;51.276;6.472;2023-04-24T14:12:37;1.33;;;1.00;;
4810;SDS011;2419;51.276;6.472;2023-04-24T14:15:05;2.40;;;1.07;;
4810;SDS011;2419;51.276;6.472;2023-04-24T14:17:34;1.33;;;1.07;;
4810;SDS011;2419;51.276;6.472;2023-04-24T14:20:03;2.43;;;1.00;;
4810;SDS011;2419;51.276;6.472;2023-04-24T14:22:34;3.50;;;1.83;;
4810;SDS011;2419;51.276;6.472;2023-04-24T14:25:02;1.37;;;1.27;;
4810;SDS011;2419;51.276;6.472;2023-04-24T14:27:31;2.70;;;1.50;;
4810;SDS011;2419;51.276;6.472;2023-04-24T14:30:00;1.30;;;1.00;;
4810;SDS011;2419;51.276;6.472;2023-04-24T14:32:29;2.53;;;1.20;;
4810;SDS011;2419;51.276;6.472;2023-04-24T14:34:57;3.87;;;1.60;;
4810;SDS011;2419;51.276;6.472;2023-04-24T14:37:25;1.50;;;1.40;;
4810;SDS011;2419;51.276;6.472;2023-04-24T14:39:55;1.80;;;1.40;;
4810;SDS011;2419;51.276;6.472;2023-04-24T14:42:40;1.00;;;0.90;;
4810;SDS011;2419;51.276;6.472;2023-04-24T14:45:09;1.77;;;1.10;;
4810;SDS011;2419;51.276;6.472;2023-04-24T14:47:37;1.27;;;1.10;;
4810;SDS011;2419;51.276;6.472;2023-04-24T14:50:06;1.70;;;1.03;;
4810;SDS011;2419;51.276;6.472;2023-04-24T14:52:35;1.67;;;1.33;;
4810;SDS011;2419;51.276;6.472;2023-04-24T14:55:08;4.10;;;1.83;;
4810;SDS011;2419;51.276;6.472;2023-04-24T14:57:36;2.60;;;1.50;;
4810;SDS011;2419;51.276;6.472;2023-04-24T15:00:04;2.00;;;1.33;;
4810;SDS011;2419;51.276;6.472;2023-04-24T15:02:34;1.80;;;1.20;;
4810;SDS011;2419;51.276;6.472;2023-04-24T15:05:06;1.63;;;1.20;;
4810;SDS011;2419;51.276;6.472;2023-04-24T15:07:36;1.03;;;1.00;;
4810;SDS011;2419;51.276;6.472;2023-04-24T15:10:05;1.93;;;1.47;;
4810;SDS011;2419;51.276;6.472;2023-04-24T15:12:35;1.63;;;1.40;;
4810;SDS011;2419;51.276;6.472;2023-04-24T15:15:03;1.60;;;1.27;;
4810;SDS011;2419;51.276;6.472;2023-04-24T15:17:32;2.10;;;1.53;;
4810;SDS011;2419;51.276;6.472;2023-04-24T15:20:01;2.70;;;1.50;;
4810;SDS011;2419;51.276;6.472;2023-04-24T15:22:29;4.20;;;1.40;;
4810;SDS011;2419;51.276;6.472;2023-04-24T15:24:57;2.80;;;1.40;;
4810;SDS011;2419;51.276;6.472;2023-04-24T15:27:25;2.20;;;1.43;;
4810;SDS011;2419;51.276;6.472;2023-04-24T15:29:55;1.50;;;1.20;;
4810;SDS011;2419;51.276;6.472;2023-04-24T15:32:24;2.20;;;1.07;;
4810;SDS011;2419;51.276;6.472;2023-04-24T15:34:53;4.23;;;1.30;;